createdAt,value
2022-11-23T00:01:34.414Z,1.77
2022-11-23T00:04:04.107Z,1.90
2022-11-23T00:06:34.409Z,2.00
2022-11-23T00:09:03.894Z,1.93
2022-11-23T00:11:32.501Z,2.20
2022-11-23T00:14:00.950Z,2.03
2022-11-23T00:16:32.091Z,1.70
2022-11-23T00:19:01.916Z,2.10
2022-11-23T00:21:31.240Z,1.70
2022-11-23T00:24:01.062Z,2.03
2022-11-23T00:26:29.890Z,1.80
2022-11-23T00:29:00.890Z,2.13
2022-11-23T00:31:30.646Z,1.67
2022-11-23T00:34:01.644Z,1.60
2022-11-23T00:36:30.132Z,1.90
2022-11-23T00:39:01.623Z,1.80
2022-11-23T00:41:32.694Z,1.93
2022-11-23T00:44:01.141Z,1.37
2022-11-23T00:46:32.029Z,1.60
2022-11-23T00:49:00.636Z,1.70
2022-11-23T00:51:31.146Z,1.70
2022-11-23T00:53:59.950Z,1.93
2022-11-23T00:56:28.720Z,1.60
2022-11-23T00:58:57.776Z,1.50
2022-11-23T01:01:27.304Z,1.30
2022-11-23T01:03:58.247Z,1.80
2022-11-23T01:06:31.431Z,1.60
2022-11-23T01:09:01.058Z,1.50
2022-11-23T01:11:31.317Z,1.57
2022-11-23T01:14:00.090Z,1.73
2022-11-23T01:16:29.702Z,1.30
2022-11-23T01:19:00.848Z,1.40
2022-11-23T01:21:29.949Z,1.40
2022-11-23T01:23:58.429Z,1.47
2022-11-23T01:26:27.154Z,1.60
2022-11-23T01:28:59.329Z,1.40
2022-11-23T01:31:27.905Z,1.70
2022-11-23T01:33:56.508Z,1.63
2022-11-23T01:36:27.240Z,1.70
2022-11-23T01:38:56.016Z,1.60
2022-11-23T01:41:25.563Z,1.40
2022-11-23T01:43:54.008Z,1.40
2022-11-23T01:46:22.711Z,1.30
2022-11-23T01:48:52.841Z,1.40
2022-11-23T01:51:23.554Z,1.50
2022-11-23T01:53:54.613Z,1.20
2022-11-23T01:56:28.282Z,1.30
2022-11-23T01:58:58.308Z,1.57
2022-11-23T02:01:29.142Z,1.60
2022-11-23T02:03:58.449Z,1.50
2022-11-23T02:06:27.031Z,1.50
2022-11-23T02:08:57.527Z,1.70
2022-11-23T02:11:26.780Z,1.70
2022-11-23T02:13:57.083Z,1.53
2022-11-23T02:16:25.516Z,1.50
2022-11-23T02:18:54.438Z,1.53
2022-11-23T02:21:23.814Z,1.33
2022-11-23T02:23:56.245Z,1.53
2022-11-23T02:26:27.563Z,1.60
2022-11-23T02:29:02.606Z,1.70
2022-11-23T02:31:37.174Z,1.60
2022-11-23T02:34:05.677Z,1.93
2022-11-23T02:36:38.526Z,1.67
2022-11-23T02:39:09.275Z,1.60
2022-11-23T02:41:40.485Z,1.80
2022-11-23T02:44:13.904Z,1.53
2022-11-23T02:46:44.305Z,1.77
2022-11-23T02:49:12.791Z,1.70
2022-11-23T02:51:41.202Z,1.60
2022-11-23T02:54:09.788Z,1.60
2022-11-23T02:56:40.612Z,1.30
2022-11-23T02:59:09.606Z,1.70
2022-11-23T03:01:39.940Z,1.50
2022-11-23T03:04:08.415Z,1.50
2022-11-23T03:06:36.888Z,1.33
2022-11-23T03:09:05.874Z,1.30
2022-11-23T03:11:34.479Z,1.50
2022-11-23T03:14:05.993Z,1.53
2022-11-23T03:16:43.276Z,1.30
2022-11-23T03:19:11.889Z,1.60
2022-11-23T03:21:40.418Z,1.87
2022-11-23T03:24:09.639Z,1.27
2022-11-23T03:26:38.948Z,1.63
2022-11-23T03:29:13.475Z,1.83
2022-11-23T03:31:43.288Z,1.80
2022-11-23T03:34:14.805Z,1.60
2022-11-23T03:36:43.236Z,2.00
2022-11-23T03:39:11.759Z,1.70
2022-11-23T03:41:52.194Z,1.50
2022-11-23T03:44:24.822Z,1.60
2022-11-23T03:46:53.320Z,1.80
2022-11-23T03:49:21.876Z,1.63
2022-11-23T03:51:51.501Z,1.90
2022-11-23T03:54:20.050Z,1.73
2022-11-23T03:56:49.954Z,1.90
2022-11-23T03:59:18.785Z,1.70
2022-11-23T04:01:49.353Z,1.80
2022-11-23T04:04:23.326Z,1.93
2022-11-23T04:07:21.350Z,1.80
2022-11-23T04:09:53.221Z,1.90
2022-11-23T04:12:30.266Z,1.77
2022-11-23T04:14:58.750Z,1.83
2022-11-23T04:17:28.521Z,1.90
2022-11-23T04:19:56.947Z,1.80
2022-11-23T04:22:26.008Z,1.60
2022-11-23T04:24:54.571Z,1.83
2022-11-23T04:27:23.685Z,1.87
2022-11-23T04:29:52.137Z,2.03
2022-11-23T04:32:21.198Z,2.00
2022-11-23T04:34:51.665Z,1.90
2022-11-23T04:37:20.127Z,2.13
2022-11-23T04:39:48.648Z,2.20
2022-11-23T04:42:31.102Z,1.90
2022-11-23T04:45:02.757Z,2.30
2022-11-23T04:47:32.756Z,2.00
2022-11-23T04:50:06.949Z,1.90
2022-11-23T04:52:35.593Z,1.80
2022-11-23T04:55:08.135Z,1.93
2022-11-23T04:57:43.868Z,2.33
2022-11-23T05:00:14.090Z,2.27
2022-11-23T05:02:42.910Z,2.00
2022-11-23T05:05:20.764Z,2.10
2022-11-23T05:07:49.540Z,1.90
2022-11-23T05:10:19.851Z,2.43
2022-11-23T05:12:49.283Z,2.10
2022-11-23T05:15:18.482Z,1.97
2022-11-23T05:17:47.403Z,2.03
2022-11-23T05:20:25.484Z,2.13
2022-11-23T05:22:54.027Z,2.10
2022-11-23T05:25:25.228Z,2.27
2022-11-23T05:28:11.466Z,2.50
2022-11-23T05:30:50.524Z,2.33
2022-11-23T05:33:19.758Z,2.10
2022-11-23T05:35:49.695Z,2.00
2022-11-23T05:38:21.050Z,2.30
2022-11-23T05:40:52.588Z,2.33
2022-11-23T05:43:21.266Z,2.33
2022-11-23T05:45:49.893Z,1.90
2022-11-23T05:48:19.585Z,1.90
2022-11-23T05:51:05.087Z,2.27
2022-11-23T05:53:40.307Z,2.40
2022-11-23T05:56:47.533Z,2.10
2022-11-23T05:59:22.095Z,2.40
2022-11-23T06:01:56.487Z,2.87
2022-11-23T06:04:30.576Z,2.20
2022-11-23T06:07:02.043Z,2.30
2022-11-23T06:09:44.858Z,2.43
2022-11-23T06:12:13.699Z,2.40
2022-11-23T06:14:42.307Z,2.50
2022-11-23T06:17:27.524Z,2.20
2022-11-23T06:20:03.382Z,2.70
2022-11-23T06:22:36.152Z,2.70
2022-11-23T06:25:07.374Z,3.10
2022-11-23T06:27:45.214Z,3.27
2022-11-23T06:30:22.566Z,2.77
2022-11-23T06:32:51.107Z,2.60
2022-11-23T06:35:21.720Z,2.50
2022-11-23T06:37:53.700Z,3.13
2022-11-23T06:40:22.404Z,2.87
2022-11-23T06:42:51.279Z,2.50
2022-11-23T06:45:27.263Z,3.37
2022-11-23T06:48:00.911Z,3.93
2022-11-23T06:50:31.898Z,3.70
2022-11-23T06:53:02.371Z,3.27
2022-11-23T06:55:42.943Z,3.50
2022-11-23T06:58:13.060Z,3.97
2022-11-23T07:00:42.760Z,3.10
2022-11-23T07:03:14.341Z,3.33
2022-11-23T07:05:44.941Z,2.67
2022-11-23T07:08:15.438Z,2.43
2022-11-23T07:10:44.315Z,3.00
2022-11-23T07:13:16.639Z,2.60
2022-11-23T07:15:45.513Z,2.20
2022-11-23T07:18:14.494Z,2.43
2022-11-23T07:20:49.632Z,2.33
2022-11-23T07:23:19.745Z,2.40
2022-11-23T07:25:48.371Z,2.50
2022-11-23T07:28:18.292Z,2.47
2022-11-23T07:30:46.772Z,2.57
2022-11-23T07:33:16.778Z,2.73
2022-11-23T07:35:46.293Z,2.90
2022-11-23T07:38:14.801Z,2.53
2022-11-23T07:40:46.024Z,2.47
2022-11-23T07:43:25.728Z,2.60
2022-11-23T07:45:57.224Z,3.00
2022-11-23T07:48:26.204Z,2.70
2022-11-23T07:50:54.923Z,2.50
2022-11-23T07:53:23.793Z,2.80
2022-11-23T07:55:56.739Z,2.60
2022-11-23T07:58:25.466Z,2.70
2022-11-23T08:00:54.246Z,2.97
2022-11-23T08:03:30.533Z,2.40
2022-11-23T08:05:59.432Z,2.37
2022-11-23T08:08:28.897Z,2.63
2022-11-23T08:10:58.679Z,2.80
2022-11-23T08:13:27.111Z,2.30
2022-11-23T08:15:56.183Z,2.37
2022-11-23T08:18:25.074Z,2.90
2022-11-23T08:20:53.475Z,2.87
2022-11-23T08:23:22.378Z,2.63
2022-11-23T08:25:50.992Z,2.60
2022-11-23T08:28:21.114Z,2.70
2022-11-23T08:30:49.711Z,2.37
2022-11-23T08:33:18.149Z,2.60
2022-11-23T08:35:46.606Z,2.57
2022-11-23T08:38:15.160Z,2.60
2022-11-23T08:40:43.675Z,2.30
2022-11-23T08:43:12.159Z,2.47
2022-11-23T08:45:41.959Z,3.17
2022-11-23T08:48:14.595Z,2.87
2022-11-23T08:50:44.494Z,2.30
2022-11-23T08:53:13.156Z,2.40
2022-11-23T08:55:41.782Z,2.67
2022-11-23T08:58:13.336Z,2.60
2022-11-23T09:00:43.542Z,2.40
2022-11-23T09:03:12.061Z,2.00
2022-11-23T09:05:40.476Z,1.83
2022-11-23T09:08:09.114Z,2.00
2022-11-23T09:10:37.700Z,1.97
2022-11-23T09:13:06.406Z,1.70
2022-11-23T09:15:34.836Z,1.57
2022-11-23T09:18:04.656Z,1.60
2022-11-23T09:20:33.090Z,2.03
2022-11-23T09:23:01.669Z,1.53
2022-11-23T09:25:30.120Z,1.60
2022-11-23T09:28:00.145Z,1.37
2022-11-23T09:30:28.659Z,1.60
2022-11-23T09:32:57.972Z,1.70
2022-11-23T09:35:27.870Z,1.50
2022-11-23T09:37:59.380Z,1.57
2022-11-23T09:40:30.442Z,1.57
2022-11-23T09:43:12.647Z,1.30
2022-11-23T09:45:43.671Z,1.53
2022-11-23T09:48:30.043Z,1.33
2022-11-23T09:51:02.415Z,1.47
2022-11-23T09:53:35.367Z,1.77
2022-11-23T09:56:03.973Z,1.53
2022-11-23T09:58:35.783Z,1.63
2022-11-23T10:01:05.824Z,2.13
2022-11-23T10:03:37.157Z,2.10
2022-11-23T10:06:09.581Z,1.97
2022-11-23T10:08:45.794Z,1.60
2022-11-23T10:11:27.067Z,2.10
2022-11-23T10:14:02.484Z,1.60
2022-11-23T10:16:36.505Z,1.90
2022-11-23T10:19:07.374Z,1.63
2022-11-23T10:21:41.710Z,1.47
2022-11-23T10:24:19.328Z,1.87
2022-11-23T10:26:49.740Z,1.60
2022-11-23T10:29:22.423Z,1.43
2022-11-23T10:31:56.808Z,1.33
2022-11-23T10:34:28.242Z,1.30
2022-11-23T10:36:58.391Z,1.50
2022-11-23T10:39:27.561Z,1.70
2022-11-23T10:42:01.883Z,1.33
2022-11-23T10:44:35.009Z,1.10
2022-11-23T10:47:04.016Z,1.20
2022-11-23T10:49:33.307Z,1.40
2022-11-23T10:52:05.527Z,1.00
2022-11-23T10:54:36.085Z,1.10
2022-11-23T10:57:05.852Z,1.10
2022-11-23T10:59:36.007Z,1.13
2022-11-23T11:02:13.089Z,1.20
2022-11-23T11:04:41.546Z,1.13
2022-11-23T11:07:33.603Z,1.00
2022-11-23T11:10:03.273Z,1.37
2022-11-23T11:12:34.715Z,1.20
2022-11-23T11:15:11.318Z,1.50
2022-11-23T11:17:44.015Z,1.10
2022-11-23T11:20:38.166Z,1.10
2022-11-23T11:23:17.686Z,0.90
2022-11-23T11:25:46.538Z,1.67
2022-11-23T11:28:22.520Z,0.97
2022-11-23T11:30:58.380Z,0.97
2022-11-23T11:33:33.320Z,1.60
2022-11-23T11:36:05.761Z,1.00
2022-11-23T11:38:37.557Z,0.90
2022-11-23T11:41:09.075Z,1.20
2022-11-23T11:43:40.565Z,0.90
2022-11-23T11:46:29.683Z,0.93
2022-11-23T11:49:01.945Z,1.23
2022-11-23T11:51:33.971Z,1.13
2022-11-23T11:54:07.547Z,1.10
2022-11-23T11:56:38.101Z,1.13
2022-11-23T11:59:12.751Z,1.03
2022-11-23T12:01:44.288Z,1.47
2022-11-23T12:04:16.132Z,0.70
2022-11-23T12:06:48.918Z,0.80
2022-11-23T12:09:21.598Z,1.03
2022-11-23T12:11:50.209Z,0.97
2022-11-23T12:14:18.920Z,1.07
2022-11-23T12:17:17.055Z,0.90
2022-11-23T12:19:42.020Z,0.70
2022-11-23T12:22:21.363Z,0.80
2022-11-23T12:24:56.764Z,0.70
2022-11-23T12:27:31.057Z,0.90
2022-11-23T12:30:05.196Z,1.10
2022-11-23T12:32:39.104Z,1.00
2022-11-23T12:35:16.364Z,0.83
2022-11-23T12:37:52.653Z,1.03
2022-11-23T12:40:26.761Z,0.80
2022-11-23T12:42:58.726Z,0.93
2022-11-23T12:45:31.681Z,1.03
2022-11-23T12:48:04.243Z,1.00
2022-11-23T12:50:36.612Z,0.90
2022-11-23T12:53:10.309Z,1.30
2022-11-23T12:55:47.669Z,1.00
2022-11-23T12:58:21.554Z,1.53
2022-11-23T13:00:51.896Z,0.80
2022-11-23T13:03:41.001Z,1.30
2022-11-23T13:06:20.602Z,0.90
2022-11-23T13:08:57.179Z,0.90
2022-11-23T13:11:32.553Z,0.93
2022-11-23T13:14:10.967Z,1.00
2022-11-23T13:16:44.414Z,0.60
2022-11-23T13:19:26.232Z,0.80
2022-11-23T13:21:55.475Z,1.00
2022-11-23T13:24:28.453Z,0.80
2022-11-23T13:27:15.629Z,0.57
2022-11-23T13:30:00.661Z,0.80
2022-11-23T13:32:36.012Z,0.80
2022-11-23T13:35:04.652Z,0.80
2022-11-23T13:37:34.346Z,0.67
2022-11-23T13:40:03.937Z,0.77
2022-11-23T13:42:36.986Z,0.90
2022-11-23T13:45:24.259Z,0.90
2022-11-23T13:48:34.719Z,0.90
2022-11-23T13:51:03.445Z,0.80
2022-11-23T13:53:33.990Z,1.33
2022-11-23T13:56:18.160Z,1.00
2022-11-23T13:58:54.040Z,0.60
2022-11-23T14:01:41.133Z,0.70
2022-11-23T14:04:27.503Z,1.00
2022-11-23T14:06:58.821Z,0.80
2022-11-23T14:09:29.933Z,0.83
2022-11-23T14:12:03.061Z,0.70
2022-11-23T14:14:35.401Z,0.93
2022-11-23T14:17:15.998Z,1.00
2022-11-23T14:19:50.564Z,0.97
2022-11-23T14:22:24.494Z,0.70
2022-11-23T14:25:02.279Z,0.67
2022-11-23T14:27:47.249Z,0.80
2022-11-23T14:30:25.823Z,0.80
2022-11-23T14:33:04.214Z,1.10
2022-11-23T14:35:34.786Z,1.17
2022-11-23T14:38:21.201Z,1.33
2022-11-23T14:40:55.099Z,0.90
2022-11-23T14:43:23.914Z,0.90
2022-11-23T14:45:52.904Z,1.03
2022-11-23T14:48:25.169Z,1.13
2022-11-23T14:50:58.054Z,1.40
2022-11-23T14:53:29.345Z,0.90
2022-11-23T14:55:59.556Z,0.93
2022-11-23T14:58:30.460Z,1.03
2022-11-23T15:01:03.435Z,0.90
2022-11-23T15:03:50.052Z,1.10
2022-11-23T15:06:24.285Z,1.00
2022-11-23T15:08:55.399Z,0.90
2022-11-23T15:11:28.611Z,0.93
2022-11-23T15:14:03.186Z,0.93
2022-11-23T15:16:31.834Z,1.00
2022-11-23T15:19:00.390Z,1.30
2022-11-23T15:21:29.401Z,1.20
2022-11-23T15:24:00.186Z,1.10
2022-11-23T15:26:48.904Z,1.07
2022-11-23T15:29:34.908Z,1.00
2022-11-23T15:32:29.410Z,1.20
2022-11-23T15:34:53.689Z,1.17
2022-11-23T15:37:23.383Z,0.90
2022-11-23T15:39:52.441Z,1.47
2022-11-23T15:42:23.905Z,1.30
2022-11-23T15:44:54.230Z,1.30
2022-11-23T15:47:27.292Z,1.17
2022-11-23T15:49:59.716Z,1.50
2022-11-23T15:52:29.715Z,1.30
2022-11-23T15:54:58.435Z,1.40
2022-11-23T15:57:28.333Z,1.60
2022-11-23T15:59:58.071Z,1.40
2022-11-23T16:02:31.121Z,1.50
2022-11-23T16:05:07.411Z,1.97
2022-11-23T16:07:36.153Z,1.90
2022-11-23T16:10:11.168Z,1.93
2022-11-23T16:12:50.046Z,2.00
2022-11-23T16:15:32.740Z,2.13
2022-11-23T16:18:01.521Z,1.87
2022-11-23T16:20:32.789Z,1.80
2022-11-23T16:23:02.089Z,1.80
2022-11-23T16:25:32.420Z,2.07
2022-11-23T16:28:06.124Z,2.20
2022-11-23T16:30:37.701Z,1.87
2022-11-23T16:33:06.467Z,1.90
2022-11-23T16:35:37.700Z,2.07
2022-11-23T16:38:07.351Z,1.97
2022-11-23T16:40:35.972Z,2.00
2022-11-23T16:43:05.940Z,2.17
2022-11-23T16:45:34.649Z,1.57
2022-11-23T16:48:03.917Z,1.70
2022-11-23T16:50:33.169Z,1.70
2022-11-23T16:53:03.134Z,2.30
2022-11-23T16:55:32.260Z,2.30
2022-11-23T16:58:00.716Z,2.37
2022-11-23T17:00:30.924Z,2.60
2022-11-23T17:02:59.477Z,2.33
2022-11-23T17:05:27.927Z,2.60
2022-11-23T17:07:56.421Z,2.27
2022-11-23T17:10:25.288Z,2.67
2022-11-23T17:12:55.490Z,2.23
2022-11-23T17:15:25.061Z,2.70
2022-11-23T17:17:54.935Z,2.60
2022-11-23T17:20:24.666Z,2.90
2022-11-23T17:22:56.508Z,2.97
2022-11-23T17:25:24.955Z,3.10
2022-11-23T17:27:53.513Z,3.53
2022-11-23T17:30:23.438Z,3.83
2022-11-23T17:32:52.065Z,4.30
2022-11-23T17:35:22.149Z,3.50
2022-11-23T17:37:50.713Z,3.97
2022-11-23T17:40:21.090Z,3.63
2022-11-23T17:42:49.797Z,3.93
2022-11-23T17:45:18.303Z,4.23
2022-11-23T17:47:46.892Z,3.67
2022-11-23T17:50:17.641Z,3.63
2022-11-23T17:52:48.095Z,3.57
2022-11-23T17:55:17.532Z,3.83
2022-11-23T17:57:46.141Z,3.70
2022-11-23T18:00:17.983Z,3.07
2022-11-23T18:02:46.487Z,3.40
2022-11-23T18:05:20.843Z,3.20
2022-11-23T18:07:51.580Z,4.23
2022-11-23T18:10:20.326Z,4.03
2022-11-23T18:12:49.012Z,4.13
2022-11-23T18:15:17.568Z,3.73
2022-11-23T18:17:50.887Z,4.20
2022-11-23T18:20:19.321Z,3.80
2022-11-23T18:22:48.056Z,3.40
2022-11-23T18:25:18.174Z,3.97
2022-11-23T18:27:46.596Z,3.50
2022-11-23T18:30:15.501Z,3.33
2022-11-23T18:32:43.999Z,3.00
2022-11-23T18:35:12.439Z,2.50
2022-11-23T18:37:40.935Z,3.37
2022-11-23T18:40:10.016Z,3.10
2022-11-23T18:42:39.828Z,3.57
2022-11-23T18:45:09.578Z,4.57
2022-11-23T18:47:38.094Z,4.63
2022-11-23T18:50:07.099Z,4.83
2022-11-23T18:52:35.805Z,3.77
2022-11-23T18:55:04.245Z,4.70
2022-11-23T18:57:32.685Z,4.53
2022-11-23T19:00:02.741Z,4.30
2022-11-23T19:02:31.740Z,4.43
2022-11-23T19:05:00.228Z,4.77
2022-11-23T19:07:28.821Z,4.00
2022-11-23T19:09:58.450Z,3.20
2022-11-23T19:12:26.884Z,2.40
2022-11-23T19:14:55.294Z,2.50
2022-11-23T19:17:25.046Z,2.30
2022-11-23T19:19:53.540Z,1.80
2022-11-23T19:22:21.957Z,1.60
2022-11-23T19:24:50.402Z,2.27
2022-11-23T19:27:18.952Z,1.70
2022-11-23T19:29:47.710Z,1.70
2022-11-23T19:32:16.147Z,1.50
2022-11-23T19:34:45.929Z,1.47
2022-11-23T19:37:14.324Z,1.83
2022-11-23T19:39:42.759Z,1.70
2022-11-23T19:42:11.156Z,2.00
2022-11-23T19:44:39.628Z,1.70
2022-11-23T19:47:15.367Z,1.70
2022-11-23T19:49:48.172Z,1.63
2022-11-23T19:52:16.784Z,1.67
2022-11-23T19:54:45.356Z,1.83
2022-11-23T19:57:13.920Z,1.60
2022-11-23T19:59:44.641Z,1.70
2022-11-23T20:02:22.444Z,1.90
2022-11-23T20:04:52.869Z,2.27
2022-11-23T20:07:21.600Z,1.87
2022-11-23T20:09:50.161Z,1.70
2022-11-23T20:12:18.557Z,1.50
2022-11-23T20:14:47.056Z,1.27
2022-11-23T20:17:15.646Z,1.70
2022-11-23T20:19:44.065Z,1.80
2022-11-23T20:22:13.876Z,2.00
2022-11-23T20:24:42.381Z,2.00
2022-11-23T20:27:10.801Z,2.17
2022-11-23T20:29:40.304Z,2.70
2022-11-23T20:32:08.867Z,3.27
2022-11-23T20:34:37.550Z,2.20
2022-11-23T20:37:07.663Z,2.50
2022-11-23T20:39:37.501Z,2.17
2022-11-23T20:42:06.201Z,2.30
2022-11-23T20:44:34.740Z,2.53
2022-11-23T20:47:03.942Z,3.13
2022-11-23T20:49:33.042Z,2.57
2022-11-23T20:52:01.838Z,2.97
2022-11-23T20:54:30.416Z,3.90
2022-11-23T20:57:00.722Z,4.03
2022-11-23T20:59:29.536Z,3.17
2022-11-23T21:01:58.091Z,5.00
2022-11-23T21:04:27.015Z,3.67
2022-11-23T21:06:55.653Z,2.83
2022-11-23T21:09:24.174Z,4.20
2022-11-23T21:12:10.199Z,4.37
2022-11-23T21:14:40.204Z,3.20
2022-11-23T21:17:36.954Z,3.40
2022-11-23T21:20:12.217Z,3.40
2022-11-23T21:22:40.647Z,3.70
2022-11-23T21:25:09.581Z,4.27
2022-11-23T21:27:38.001Z,4.80
2022-11-23T21:30:08.618Z,4.80
2022-11-23T21:32:37.133Z,3.90
2022-11-23T21:35:06.029Z,5.43
2022-11-23T21:37:35.087Z,4.57
2022-11-23T21:40:03.783Z,4.93
2022-11-23T21:42:33.756Z,4.80
2022-11-23T21:45:02.779Z,4.97
2022-11-23T21:47:32.536Z,5.20
2022-11-23T21:50:01.464Z,6.10
2022-11-23T21:52:30.942Z,6.03
2022-11-23T21:55:07.459Z,6.07
2022-11-23T21:57:35.963Z,4.83
2022-11-23T22:00:04.539Z,5.80
2022-11-23T22:02:41.939Z,5.70
2022-11-23T22:05:10.638Z,5.53
2022-11-23T22:07:39.874Z,5.43
2022-11-23T22:10:10.429Z,6.17
2022-11-23T22:12:40.565Z,5.90
2022-11-23T22:15:12.172Z,5.43
2022-11-23T22:17:42.431Z,5.80
2022-11-23T22:20:11.980Z,5.73
2022-11-23T22:22:40.570Z,5.00
2022-11-23T22:25:10.021Z,4.60
2022-11-23T22:27:38.544Z,4.83
2022-11-23T22:30:08.546Z,4.33
2022-11-23T22:32:37.250Z,4.40
2022-11-23T22:35:08.420Z,4.17
2022-11-23T22:37:36.970Z,4.27
2022-11-23T22:40:07.776Z,4.20
2022-11-23T22:42:37.382Z,4.37
2022-11-23T22:45:06.032Z,4.30
2022-11-23T22:47:34.897Z,4.77
2022-11-23T22:50:07.916Z,3.93
2022-11-23T22:52:36.576Z,4.27
2022-11-23T22:55:05.370Z,3.57
2022-11-23T22:57:34.245Z,3.70
2022-11-23T23:00:02.718Z,4.30
2022-11-23T23:02:33.161Z,3.70
2022-11-23T23:05:01.817Z,3.40
2022-11-23T23:07:31.838Z,4.07
2022-11-23T23:10:00.320Z,3.77
2022-11-23T23:12:28.764Z,2.90
2022-11-23T23:14:57.184Z,3.33
2022-11-23T23:17:25.571Z,3.97
2022-11-23T23:19:54.465Z,3.20
2022-11-23T23:22:23.118Z,3.10
2022-11-23T23:24:54.146Z,3.40
2022-11-23T23:27:22.882Z,2.97
2022-11-23T23:29:52.066Z,3.40
2022-11-23T23:32:20.840Z,3.07
2022-11-23T23:34:49.283Z,2.73
2022-11-23T23:37:17.676Z,2.77
2022-11-23T23:39:46.256Z,3.20
2022-11-23T23:42:16.032Z,2.87
2022-11-23T23:44:44.585Z,3.03
2022-11-23T23:47:13.062Z,3.30
2022-11-23T23:49:41.506Z,3.40
2022-11-23T23:52:09.936Z,3.33
2022-11-23T23:54:38.353Z,4.20
2022-11-23T23:57:06.833Z,3.43
2022-11-23T23:59:36.639Z,3.27
